Time;durP1;ratioP1;P1;durP2;ratioP2;P2;SDS_P1;SDS_P2;PMS_P1;PMS_P2;Temp;Humidity;BMP_temperature;BMP_pressure;BME280_temperature;BME280_humidity;BME280_pressure;Samples;Min_cycle;Max_cycle;Signal;HPM_P1;HPM_P2
2022/03/08 00:00:15;;;;;;;3.88;3.47;;;;;;;0.58;100.00;102678.56;5052975;28;20054;-81
2022/03/08 00:02:44;;;;;;;4.30;3.90;;;;;;;0.61;100.00;102678.78;4999433;28;20529;-80
2022/03/08 00:05:13;;;;;;;3.40;3.10;;;;;;;0.64;100.00;102673.81;5021191;28;20042;-81
2022/03/08 00:07:42;;;;;;;3.67;3.08;;;;;;;0.66;100.00;102664.47;5010354;28;20030;-80
2022/03/08 00:10:11;;;;;;;4.47;4.07;;;;;;;0.68;100.00;102669.75;5009692;28;20046;-82
2022/03/08 00:12:40;;;;;;;3.95;3.55;;;;;;;0.69;100.00;102664.66;5018353;28;20049;-82
2022/03/08 00:15:12;;;;;;;3.83;3.42;;;;;;;0.72;100.00;102674.41;5014432;28;20052;-80
2022/03/08 00:17:40;;;;;;;;;;;;;;;0.71;100.00;102670.88;5045872;28;20046;-81
2022/03/08 00:20:12;;;;;;;4.10;3.40;;;;;;;0.69;100.00;102662.06;5030265;28;19928;-81
2022/03/08 00:22:41;;;;;;;5.22;3.25;;;;;;;0.67;100.00;102661.06;4990491;28;20057;-80
2022/03/08 00:25:11;;;;;;;4.10;3.55;;;;;;;0.65;100.00;102652.28;5030616;28;20046;-81
2022/03/08 00:27:46;;;;;;;4.85;3.95;;;;;;;0.64;100.00;102655.66;5014948;28;20042;-81
2022/03/08 00:30:23;;;;;;;4.90;3.70;;;;;;;0.63;100.00;102646.06;5015464;28;20049;-80
2022/03/08 00:32:53;;;;;;;4.28;3.53;;;;;;;0.62;100.00;102645.97;5028642;28;20072;-80
2022/03/08 00:35:24;;;;;;;4.75;3.50;;;;;;;0.58;100.00;102650.91;5030367;28;20125;-80
2022/03/08 00:37:56;;;;;;;4.32;3.08;;;;;;;0.56;100.00;102655.09;5023421;28;20045;-80
2022/03/08 00:40:25;;;;;;;3.88;3.58;;;;;;;0.56;100.00;102651.59;5022640;28;20038;-80
2022/03/08 00:42:54;;;;;;;4.32;3.75;;;;;;;0.56;100.00;102643.81;4988533;28;24631;-81
2022/03/08 00:45:23;;;;;;;4.22;3.90;;;;;;;0.59;100.00;102659.63;5008696;28;20049;-80
2022/03/08 00:47:55;;;;;;;5.05;3.78;;;;;;;0.63;100.00;102658.16;5008174;28;20045;-80
2022/03/08 00:50:28;;;;;;;5.75;3.65;;;;;;;0.64;100.00;102653.03;5021858;28;20521;-80
2022/03/08 00:52:58;;;;;;;4.07;3.67;;;;;;;0.65;100.00;102652.28;5000535;28;20046;-81
2022/03/08 00:55:29;;;;;;;8.98;3.90;;;;;;;0.63;100.00;102651.25;5025748;28;20049;-80
2022/03/08 00:57:58;;;;;;;;;;;;;;;0.62;100.00;102652.03;5024010;28;20048;-81
2022/03/08 01:00:28;;;;;;;4.57;3.88;;;;;;;0.62;100.00;102645.97;5009396;28;19921;-81
2022/03/08 01:02:57;;;;;;;6.72;4.63;;;;;;;0.62;100.00;102639.06;5012515;28;20737;-80
2022/03/08 01:05:26;;;;;;;4.82;4.40;;;;;;;0.64;100.00;102634.88;5032927;28;20036;-80
2022/03/08 01:07:55;;;;;;;5.95;4.97;;;;;;;0.62;100.00;102633.88;5026203;28;20182;-81
2022/03/08 01:10:26;;;;;;;7.28;5.05;;;;;;;0.64;100.00;102631.41;4995706;28;20056;-80
2022/03/08 01:12:55;;;;;;;;;;;;;;;0.64;100.00;102634.88;5009918;28;20044;-81
2022/03/08 01:15:24;;;;;;;9.65;6.03;;;;;;;0.66;100.00;102638.53;5009135;28;19929;-80
2022/03/08 01:17:55;;;;;;;8.45;6.38;;;;;;;0.66;100.00;102625.56;4979747;28;20072;-80
2022/03/08 01:20:24;;;;;;;11.95;7.70;;;;;;;0.68;100.00;102634.34;5016377;28;20497;-81
2022/03/08 01:22:54;;;;;;;7.53;6.32;;;;;;;0.69;100.00;102632.63;4999127;28;20057;-80
2022/03/08 01:25:24;;;;;;;6.40;5.75;;;;;;;0.66;100.00;102622.97;4996994;28;20061;-81
2022/03/08 01:27:55;;;;;;;9.90;6.57;;;;;;;0.63;100.00;102627.03;5030870;28;20049;-80
2022/03/08 01:30:26;;;;;;;9.95;6.72;;;;;;;0.57;100.00;102610.22;5001282;28;20057;-80
2022/03/08 01:32:55;;;;;;;9.43;7.05;;;;;;;0.54;100.00;102609.09;5010973;28;20053;-80
2022/03/08 01:35:23;;;;;;;7.07;6.30;;;;;;;0.48;100.00;102608.66;5001901;28;20057;-80
2022/03/08 01:37:52;;;;;;;9.85;6.97;;;;;;;0.44;100.00;102606.63;5024709;28;20514;-80
2022/03/08 01:40:23;;;;;;;7.07;6.47;;;;;;;0.37;100.00;102606.16;5014122;28;20041;-80
2022/03/08 01:42:53;;;;;;;7.57;6.57;;;;;;;0.32;100.00;102597.16;5015340;28;20068;-80
2022/03/08 01:45:24;;;;;;;9.60;7.13;;;;;;;0.27;100.00;102600.22;5033249;28;20061;-80
2022/03/08 01:48:05;;;;;;;10.38;7.00;;;;;;;0.24;100.00;102606.06;5045336;28;20060;-81
2022/03/08 01:50:34;;;;;;;10.77;6.78;;;;;;;0.24;100.00;102600.88;5016121;28;20064;-80
2022/03/08 01:53:04;;;;;;;9.25;6.15;;;;;;;0.24;100.00;102593.09;5010483;28;20041;-80
2022/03/08 01:55:33;;;;;;;7.85;6.68;;;;;;;0.26;100.00;102594.09;4980858;28;20042;-80
2022/03/08 01:58:02;;;;;;;10.25;6.90;;;;;;;0.25;100.00;102588.84;5030903;28;20273;-80
2022/03/08 02:00:32;;;;;;;7.95;6.53;;;;;;;0.21;100.00;102582.50;4978260;28;20033;-80
2022/03/08 02:03:04;;;;;;;10.05;6.38;;;;;;;0.19;100.00;102581.50;5029386;28;20330;-82
2022/03/08 02:05:34;;;;;;;13.77;7.97;;;;;;;0.22;100.00;102581.72;4975011;28;20046;-80
2022/03/08 02:08:04;;;;;;;10.18;6.28;;;;;;;0.26;100.00;102577.66;5031145;28;20046;-80
2022/03/08 02:10:33;;;;;;;8.68;6.95;;;;;;;0.30;100.00;102582.25;5010977;28;20053;-81
2022/03/08 02:13:03;;;;;;;12.43;7.00;;;;;;;0.31;100.00;102582.38;5009870;28;20041;-80
2022/03/08 02:15:36;;;;;;;9.32;7.30;;;;;;;0.31;100.00;102584.97;5024954;28;20401;-80
2022/03/08 02:18:05;;;;;;;10.02;7.38;;;;;;;0.37;100.00;102595.78;5029944;28;20529;-81
2022/03/08 02:20:43;;;;;;;11.10;7.40;;;;;;;0.39;100.00;102585.53;5028425;28;20483;-82
2022/03/08 02:23:11;;;;;;;12.60;9.10;;;;;;;0.38;100.00;102583.75;4987601;28;20060;-80
2022/03/08 02:25:42;;;;;;;10.88;7.38;;;;;;;0.35;100.00;102587.00;5020522;28;20524;-80
2022/03/08 02:28:13;;;;;;;10.63;7.50;;;;;;;0.30;100.00;102585.78;5010234;28;20050;-81
2022/03/08 02:30:42;;;;;;;10.32;8.00;;;;;;;0.28;100.00;102592.53;5023452;28;20046;-80
2022/03/08 02:33:10;;;;;;;9.35;8.05;;;;;;;0.27;100.00;102579.47;4997814;28;20494;-80
2022/03/08 02:35:40;;;;;;;12.77;8.88;;;;;;;0.29;100.00;102581.38;5031705;28;20042;-80
2022/03/08 02:38:09;;;;;;;16.63;9.48;;;;;;;0.33;100.00;102586.00;4982554;28;20064;-80
2022/03/08 02:40:39;;;;;;;12.80;9.75;;;;;;;0.32;100.00;102571.25;5004014;28;20037;-81
2022/03/08 02:43:10;;;;;;;13.77;11.27;;;;;;;0.32;100.00;102576.41;5049542;28;20050;-81
2022/03/08 02:45:39;;;;;;;;;;;;;;;0.31;100.00;102574.59;5015307;28;20063;-80
2022/03/08 02:48:09;;;;;;;16.00;12.40;;;;;;;0.32;100.00;102572.91;5025805;28;19957;-81
2022/03/08 02:50:39;;;;;;;18.02;12.88;;;;;;;0.32;100.00;102568.63;5031030;28;20128;-81
2022/03/08 02:53:08;;;;;;;16.75;14.13;;;;;;;0.34;100.00;102559.28;5012419;28;20416;-81
2022/03/08 02:55:37;;;;;;;13.85;11.93;;;;;;;0.41;100.00;102570.09;5013571;28;20402;-80
2022/03/08 02:58:05;;;;;;;13.63;10.50;;;;;;;0.45;100.00;102564.31;5029803;28;20054;-80
2022/03/08 03:00:35;;;;;;;17.95;10.13;;;;;;;0.48;100.00;102559.38;5012794;28;20384;-81
2022/03/08 03:03:04;;;;;;;13.20;9.70;;;;;;;0.49;100.00;102562.06;5020587;28;20052;-80
2022/03/08 03:05:34;;;;;;;10.75;8.85;;;;;;;0.51;100.00;102564.75;5027030;28;20402;-80
2022/03/08 03:08:05;;;;;;;12.35;9.52;;;;;;;0.52;100.00;102554.50;5030405;28;20038;-80
2022/03/08 03:10:34;;;;;;;10.15;8.82;;;;;;;0.50;100.00;102555.19;5015252;28;20045;-80
2022/03/08 03:13:02;;;;;;;9.98;8.80;;;;;;;0.47;100.00;102566.22;4997471;28;20053;-79
2022/03/08 03:15:31;;;;;;;10.32;7.65;;;;;;;0.46;100.00;102563.53;5024394;28;20061;-81
2022/03/08 03:18:09;;;;;;;9.25;8.35;;;;;;;0.45;100.00;102566.91;5005713;28;20250;-80
2022/03/08 03:20:41;;;;;;;10.40;8.32;;;;;;;0.44;100.00;102560.84;5012760;28;20072;-81
2022/03/08 03:23:10;;;;;;;9.48;8.45;;;;;;;0.39;100.00;102560.47;5022516;28;20061;-80
2022/03/08 03:25:38;;;;;;;12.18;9.63;;;;;;;0.35;100.00;102561.06;5035000;28;20046;-80
2022/03/08 03:28:07;;;;;;;9.57;8.15;;;;;;;0.32;100.00;102559.94;5024512;28;20045;-80
2022/03/08 03:30:40;;;;;;;10.88;8.93;;;;;;;0.27;100.00;102557.03;5005750;28;20046;-80
2022/03/08 03:33:09;;;;;;;12.45;9.13;;;;;;;0.24;100.00;102561.97;4994783;28;20061;-79
2022/03/08 03:35:38;;;;;;;10.60;8.90;;;;;;;0.26;100.00;102559.50;5010903;28;20048;-80
2022/03/08 03:38:06;;;;;;;10.95;8.93;;;;;;;0.24;100.00;102556.78;4997637;28;20391;-80
2022/03/08 03:40:35;;;;;;;11.82;9.07;;;;;;;0.23;100.00;102562.78;5024169;28;20049;-81
2022/03/08 03:43:06;;;;;;;10.70;8.25;;;;;;;0.23;100.00;102555.00;5009927;28;20049;-80
2022/03/08 03:45:35;;;;;;;10.38;8.90;;;;;;;0.23;100.00;102560.19;4992132;28;20068;-82
2022/03/08 03:48:10;;;;;;;13.82;9.25;;;;;;;0.22;100.00;102567.84;5018710;28;20046;-80
2022/03/08 03:50:39;;;;;;;9.80;8.45;;;;;;;0.22;100.00;102563.56;5014097;28;20053;-80
2022/03/08 03:53:08;;;;;;;12.57;9.40;;;;;;;0.20;100.00;102562.56;5013185;28;20045;-80
2022/03/08 03:55:37;;;;;;;14.40;8.80;;;;;;;0.21;100.00;102556.59;5002028;28;20053;-81
2022/03/08 03:58:05;;;;;;;11.45;8.77;;;;;;;0.21;100.00;102556.59;4994281;28;20542;-80
2022/03/08 04:00:35;;;;;;;14.48;9.23;;;;;;;0.20;100.00;102559.97;5002264;28;20060;-81
2022/03/08 04:03:04;;;;;;;11.77;8.65;;;;;;;0.22;100.00;102566.16;5028337;28;20046;-79
2022/03/08 04:05:33;;;;;;;12.57;9.95;;;;;;;0.21;100.00;102561.78;5005823;28;20050;-81
2022/03/08 04:08:02;;;;;;;11.57;9.02;;;;;;;0.22;100.00;102562.66;4993757;28;20271;-81
2022/03/08 04:10:31;;;;;;;11.40;9.45;;;;;;;0.19;100.00;102559.06;5007333;28;20121;-80
2022/03/08 04:12:59;;;;;;;11.32;9.25;;;;;;;0.19;100.00;102550.41;5022638;28;20152;-81
2022/03/08 04:15:28;;;;;;;13.23;10.27;;;;;;;0.16;100.00;102558.84;5014713;28;20046;-81
2022/03/08 04:17:59;;;;;;;10.82;9.20;;;;;;;0.13;100.00;102547.34;5030037;28;20174;-80
2022/03/08 04:20:28;;;;;;;11.03;8.87;;;;;;;0.07;100.00;102546.91;4988251;28;20478;-80
2022/03/08 04:22:59;;;;;;;11.43;8.93;;;;;;;0.03;100.00;102548.34;4989377;28;20253;-80
2022/03/08 04:25:28;;;;;;;10.98;9.02;;;;;;;-0.02;100.00;102550.63;5034330;28;20045;-80
2022/03/08 04:27:57;;;;;;;11.75;9.88;;;;;;;-0.06;100.00;102547.69;5010222;28;20335;-80
2022/03/08 04:30:25;;;;;;;14.00;10.15;;;;;;;-0.12;100.00;102548.13;5017928;28;20057;-80
2022/03/08 04:32:54;;;;;;;11.82;10.27;;;;;;;-0.17;100.00;102549.50;5028620;28;20045;-80
2022/03/08 04:35:23;;;;;;;13.05;9.80;;;;;;;-0.22;100.00;102553.44;5022484;28;20048;-80
2022/03/08 04:37:52;;;;;;;15.05;10.15;;;;;;;-0.24;100.00;102557.59;5013338;28;20049;-80
2022/03/08 04:40:21;;;;;;;13.48;10.02;;;;;;;-0.29;100.00;102552.06;5005090;28;20049;-80
2022/03/08 04:42:56;;;;;;;13.80;10.32;;;;;;;-0.31;100.00;102548.47;5028253;28;20144;-79
2022/03/08 04:45:25;;;;;;;14.38;9.73;;;;;;;-0.33;100.00;102564.69;4975383;28;20045;-80
2022/03/08 04:47:53;;;;;;;16.20;9.90;;;;;;;-0.37;100.00;102558.38;5003771;28;20057;-80
2022/03/08 04:50:22;;;;;;;13.45;10.63;;;;;;;-0.41;100.00;102556.34;5024153;28;20065;-80
2022/03/08 04:52:54;;;;;;;16.05;11.15;;;;;;;-0.45;100.00;102556.91;4990603;28;20038;-80
2022/03/08 04:55:29;;;;;;;12.77;10.70;;;;;;;-0.47;100.00;102568.84;5015253;28;20037;-79
2022/03/08 04:58:05;;;;;;;11.15;9.52;;;;;;;-0.49;100.00;102566.13;5026432;28;20608;-81
2022/03/08 05:00:33;;;;;;;14.43;10.10;;;;;;;-0.50;100.00;102560.81;4998785;28;20046;-80
2022/03/08 05:03:02;;;;;;;15.25;10.40;;;;;;;-0.52;100.00;102562.41;5027723;28;20673;-81
2022/03/08 05:05:33;;;;;;;14.20;10.38;;;;;;;-0.55;100.00;102557.88;5047882;28;20056;-80
2022/03/08 05:08:03;;;;;;;;;;;;;;;-0.58;100.00;102560.25;5018702;28;20052;-81
2022/03/08 05:10:31;;;;;;;13.15;10.43;;;;;;;-0.59;100.00;102548.06;5032494;28;19921;-81
2022/03/08 05:13:01;;;;;;;14.63;10.57;;;;;;;-0.61;100.00;102547.06;5003466;28;20042;-81
2022/03/08 05:15:30;;;;;;;19.95;12.70;;;;;;;-0.63;100.00;102553.81;5039271;28;20045;-80
2022/03/08 05:17:58;;;;;;;18.58;14.00;;;;;;;-0.67;100.00;102550.09;5004654;28;20390;-80
2022/03/08 05:20:27;;;;;;;13.73;11.65;;;;;;;-0.71;100.00;102544.56;5010203;28;20052;-81
2022/03/08 05:22:56;;;;;;;15.13;11.25;;;;;;;-0.75;100.00;102547.72;5038510;28;20269;-80
2022/03/08 05:25:28;;;;;;;15.35;11.50;;;;;;;-0.79;100.00;102546.56;5020017;28;20053;-80
2022/03/08 05:27:56;;;;;;;14.00;10.38;;;;;;;-0.81;100.00;102541.28;5040996;28;20053;-80
2022/03/08 05:30:25;;;;;;;13.00;10.63;;;;;;;-0.84;100.00;102553.97;4998361;28;20061;-81
2022/03/08 05:32:56;;;;;;;12.82;10.98;;;;;;;-0.87;100.00;102548.59;5013636;28;20426;-80
2022/03/08 05:35:25;;;;;;;14.48;10.20;;;;;;;-0.89;100.00;102557.00;5013818;28;20022;-79
2022/03/08 05:37:54;;;;;;;17.33;11.65;;;;;;;-0.92;100.00;102549.00;5002759;28;20041;-80
2022/03/08 05:40:22;;;;;;;12.50;10.48;;;;;;;-0.95;100.00;102548.75;4995724;28;20034;-80
2022/03/08 05:42:51;;;;;;;14.40;10.55;;;;;;;-0.97;100.00;102553.81;5009856;28;20249;-81
2022/03/08 05:45:20;;;;;;;19.98;12.27;;;;;;;-0.99;100.00;102542.44;5019854;28;20046;-80
2022/03/08 05:47:48;;;;;;;16.00;12.40;;;;;;;-1.03;100.00;102551.66;5026931;28;20046;-82
2022/03/08 05:50:17;;;;;;;14.88;11.57;;;;;;;-1.04;100.00;102556.69;5028351;28;20509;-80
2022/03/08 05:52:46;;;;;;;17.00;11.57;;;;;;;-1.06;100.00;102561.78;4997465;28;20076;-81
2022/03/08 05:55:14;;;;;;;16.63;11.98;;;;;;;-1.04;100.00;102552.47;5027319;28;20406;-81
2022/03/08 05:57:43;;;;;;;15.10;11.70;;;;;;;-1.02;100.00;102555.13;4998836;28;20379;-80
2022/03/08 06:00:13;;;;;;;20.05;12.77;;;;;;;-1.01;100.00;102559.53;5036850;28;20056;-80
2022/03/08 06:02:41;;;;;;;29.75;12.73;;;;;;;-1.01;100.00;102559.53;5041360;28;20053;-79
2022/03/08 06:05:11;;;;;;;20.40;13.75;;;;;;;-1.01;100.00;102568.19;5018403;28;20053;-80
2022/03/08 06:07:43;;;;;;;26.50;14.38;;;;;;;-1.02;100.00;102557.72;5027314;28;20029;-80
2022/03/08 06:10:12;;;;;;;20.75;13.35;;;;;;;-1.01;100.00;102564.72;5022717;28;20052;-80
2022/03/08 06:12:41;;;;;;;17.92;12.65;;;;;;;-1.03;100.00;102566.28;5024091;28;20033;-82
2022/03/08 06:15:10;;;;;;;18.90;12.65;;;;;;;-1.04;100.00;102560.22;5039651;28;20050;-79
2022/03/08 06:17:39;;;;;;;18.00;12.60;;;;;;;-1.06;100.00;102571.22;5014832;28;20029;-80
2022/03/08 06:20:09;;;;;;;22.63;13.90;;;;;;;-1.07;100.00;102570.31;5026602;28;20038;-81
2022/03/08 06:22:38;;;;;;;22.35;13.82;;;;;;;-1.07;100.00;102570.31;5015914;28;20034;-81
2022/03/08 06:25:07;;;;;;;22.58;15.85;;;;;;;-1.07;100.00;102569.44;5013282;28;20064;-81
2022/03/08 06:27:38;;;;;;;29.15;17.50;;;;;;;-1.08;100.00;102568.50;5027830;28;20048;-81
2022/03/08 06:30:08;;;;;;;30.17;14.98;;;;;;;-1.06;100.00;102568.63;5016523;28;20041;-80
2022/03/08 06:32:36;;;;;;;23.08;14.82;;;;;;;-1.06;100.00;102561.78;5014693;28;20398;-81
2022/03/08 06:35:06;;;;;;;23.92;14.02;;;;;;;-1.04;100.00;102567.97;5034309;28;20034;-81
2022/03/08 06:37:36;;;;;;;21.92;14.30;;;;;;;-1.02;100.00;102573.25;4993638;28;20049;-79
2022/03/08 06:40:08;;;;;;;31.33;13.73;;;;;;;-1.01;100.00;102565.59;5004766;28;20592;-79
2022/03/08 06:42:39;;;;;;;21.23;13.43;;;;;;;-0.96;100.00;102570.22;5002314;28;20041;-79
2022/03/08 06:45:09;;;;;;;18.33;12.00;;;;;;;-0.93;100.00;102576.56;5012853;28;20064;-79
2022/03/08 06:47:41;;;;;;;21.45;13.90;;;;;;;-0.85;100.00;102565.13;4997815;28;20033;-79
2022/03/08 06:50:10;;;;;;;15.65;12.43;;;;;;;-0.79;100.00;102560.41;4989364;28;20061;-79
2022/03/08 06:52:46;;;;;;;21.45;13.43;;;;;;;-0.71;100.00;102563.59;5034934;28;20402;-79
2022/03/08 06:55:18;;;;;;;20.73;12.45;;;;;;;-0.57;100.00;102571.50;4978088;28;20057;-79
2022/03/08 06:57:46;;;;;;;20.83;12.98;;;;;;;-0.21;100.00;102565.59;4977541;28;20041;-80
2022/03/08 07:00:16;;;;;;;19.02;12.60;;;;;;;0.26;100.00;102570.75;5039009;28;20391;-79
2022/03/08 07:02:45;;;;;;;17.38;12.18;;;;;;;0.88;100.00;102576.06;4979471;28;20052;-79
2022/03/08 07:05:14;;;;;;;14.68;11.40;;;;;;;1.56;100.00;102563.41;5024822;28;20050;-80
2022/03/08 07:08:15;;;;;;;13.05;11.20;;;;;;;2.40;100.00;102555.81;4992686;28;20045;-80
2022/03/08 07:11:05;;;;;;;13.98;10.75;;;;;;;3.23;100.00;102556.69;4962457;28;20778;-80
2022/03/08 07:16:40;;;;;;;17.23;10.88;;;;;;;3.56;100.00;102569.03;5011317;28;20482;-80
2022/03/08 07:19:12;;;;;;;13.77;10.38;;;;;;;3.32;100.00;102558.94;5030585;28;20060;-79
2022/03/08 07:21:41;;;;;;;12.65;9.80;;;;;;;3.11;100.00;102564.63;4976177;28;20447;-80
2022/03/08 07:24:10;;;;;;;16.42;10.27;;;;;;;2.97;100.00;102565.50;5012907;28;20058;-79
2022/03/08 07:26:41;;;;;;;12.60;10.18;;;;;;;2.82;100.00;102572.38;4968397;28;20041;-81
2022/03/08 07:29:11;;;;;;;15.43;11.20;;;;;;;2.69;100.00;102570.69;5027384;28;20037;-79
2022/03/08 07:31:40;;;;;;;15.05;10.40;;;;;;;2.59;100.00;102577.03;4995293;28;20048;-80
2022/03/08 07:34:08;;;;;;;14.45;10.85;;;;;;;2.53;100.00;102571.41;4993529;28;20037;-81
2022/03/08 07:36:38;;;;;;;13.75;9.70;;;;;;;2.51;100.00;102573.94;5031037;28;20037;-80
2022/03/08 07:39:06;;;;;;;13.30;10.35;;;;;;;2.53;100.00;102571.41;4994370;28;20446;-80
2022/03/08 07:41:35;;;;;;;15.85;11.10;;;;;;;2.58;100.00;102576.94;5016534;28;20057;-80
2022/03/08 07:44:04;;;;;;;15.88;10.23;;;;;;;2.67;100.00;102569.72;5026253;28;20037;-82
2022/03/08 07:46:32;;;;;;;11.25;10.05;;;;;;;2.85;100.00;102565.63;4982697;28;20037;-80
2022/03/08 07:49:01;;;;;;;12.65;9.73;;;;;;;3.12;100.00;102574.25;5024936;28;20048;-80
2022/03/08 07:51:49;;;;;;;10.98;9.65;;;;;;;3.61;100.00;102567.56;5026894;28;20037;-80
2022/03/08 07:54:18;;;;;;;14.30;9.80;;;;;;;4.22;100.00;102567.63;5017878;28;20050;-81
2022/03/08 07:56:47;;;;;;;13.10;9.13;;;;;;;4.84;100.00;102565.00;5003051;28;20037;-81
2022/03/08 07:59:16;;;;;;;14.48;9.18;;;;;;;5.39;100.00;102567.00;4999054;28;20258;-81
2022/03/08 08:01:44;;;;;;;11.50;9.18;;;;;;;5.92;100.00;102567.06;5017229;28;20049;-80
2022/03/08 08:04:13;;;;;;;12.05;8.75;;;;;;;6.37;100.00;102563.19;5004767;28;20049;-80
2022/03/08 08:06:45;;;;;;;10.38;9.07;;;;;;;6.69;100.00;102553.34;5000949;28;20057;-80
2022/03/08 08:09:13;;;;;;;10.45;8.20;;;;;;;6.95;100.00;102554.50;5008050;28;20293;-80
2022/03/08 08:11:42;;;;;;;9.63;8.57;;;;;;;7.13;99.00;102549.22;5018553;28;20041;-80
2022/03/08 08:14:11;;;;;;;10.98;8.38;;;;;;;7.38;99.29;102545.06;4985933;28;20050;-80
2022/03/08 08:16:39;;;;;;;9.13;8.23;;;;;;;7.58;94.88;102556.38;5005675;28;20056;-80
2022/03/08 08:19:08;;;;;;;9.05;7.65;;;;;;;7.81;94.67;102560.00;4995570;28;20049;-80
2022/03/08 08:21:38;;;;;;;9.38;8.00;;;;;;;8.06;94.56;102568.91;5043151;28;20046;-81
2022/03/08 08:24:07;;;;;;;10.30;7.53;;;;;;;8.22;91.69;102567.78;5014871;28;20057;-80
2022/03/08 08:26:36;;;;;;;12.05;7.50;;;;;;;8.45;93.58;102561.75;5025813;28;20394;-82
2022/03/08 08:29:04;;;;;;;8.38;6.85;;;;;;;8.68;92.29;102560.00;4964067;28;20046;-81
2022/03/08 08:31:33;;;;;;;9.77;7.22;;;;;;;8.69;86.27;102555.66;5015288;28;20375;-81
2022/03/08 08:34:02;;;;;;;10.02;7.50;;;;;;;8.81;86.72;102561.38;4976827;28;20050;-81
2022/03/08 08:36:31;;;;;;;8.02;6.97;;;;;;;8.89;85.84;102559.94;4990017;28;20041;-80
2022/03/08 08:38:59;;;;;;;10.35;6.88;;;;;;;8.92;84.34;102549.53;5006272;28;20061;-81
2022/03/08 08:41:28;;;;;;;10.75;6.20;;;;;;;8.93;81.50;102553.94;5011984;28;20045;-81
2022/03/08 08:43:57;;;;;;;10.98;6.47;;;;;;;8.95;80.84;102548.75;5037979;28;20049;-79
2022/03/08 08:46:28;;;;;;;7.00;6.30;;;;;;;9.01;79.35;102558.59;5010168;28;20042;-81
2022/03/08 08:48:56;;;;;;;10.45;6.00;;;;;;;9.01;78.10;102550.72;5015235;28;20053;-81
2022/03/08 08:51:25;;;;;;;7.85;6.00;;;;;;;9.01;76.08;102546.34;5027141;28;20072;-80
2022/03/08 08:53:54;;;;;;;9.77;7.47;;;;;;;8.95;75.61;102552.25;5015099;28;20050;-82
2022/03/08 08:56:25;;;;;;;7.22;6.43;;;;;;;8.97;74.95;102549.69;4999830;28;20052;-80
2022/03/08 08:58:54;;;;;;;7.55;6.25;;;;;;;8.99;73.95;102540.13;5003985;28;20049;-80
2022/03/08 09:01:23;;;;;;;7.47;6.68;;;;;;;9.02;73.29;102539.31;5024934;28;20423;-80
2022/03/08 09:03:52;;;;;;;9.35;6.93;;;;;;;8.92;72.46;102536.41;4965216;28;20072;-81
2022/03/08 09:06:21;;;;;;;7.90;7.10;;;;;;;8.90;71.59;102539.78;5013245;28;20638;-81
2022/03/08 09:08:50;;;;;;;9.27;7.30;;;;;;;8.93;71.05;102535.53;5004842;28;20506;-81
2022/03/08 09:11:27;;;;;;;7.60;6.90;;;;;;;8.87;69.52;102537.06;5013366;28;20053;-81
2022/03/08 09:13:59;;;;;;;9.73;7.67;;;;;;;8.79;69.39;102534.16;5005561;28;20049;-80
2022/03/08 09:16:29;;;;;;;7.22;6.47;;;;;;;8.66;67.79;102531.88;4990157;28;20021;-81
2022/03/08 09:19:00;;;;;;;10.48;7.20;;;;;;;8.53;66.47;102536.66;5004456;28;20057;-81
2022/03/08 09:21:29;;;;;;;10.90;6.90;;;;;;;8.36;65.69;102525.47;5001989;28;20038;-81
2022/03/08 09:23:58;;;;;;;9.90;6.72;;;;;;;8.28;65.07;102533.88;5014706;28;20049;-81
2022/03/08 09:26:26;;;;;;;12.23;6.93;;;;;;;8.23;65.10;102530.19;5013137;28;20057;-81
2022/03/08 09:28:55;;;;;;;8.05;7.25;;;;;;;8.18;64.94;102522.09;4995362;28;20017;-81
2022/03/08 09:31:26;;;;;;;7.45;6.75;;;;;;;8.12;65.22;102525.38;5004087;28;20046;-82
2022/03/08 09:33:55;;;;;;;15.55;7.30;;;;;;;8.04;65.54;102508.44;5012678;28;20082;-82
2022/03/08 09:36:24;;;;;;;10.35;7.72;;;;;;;7.93;65.69;102509.72;4978815;28;20046;-82
2022/03/08 09:38:54;;;;;;;12.65;7.82;;;;;;;7.85;65.80;102521.66;5008011;28;20046;-82
2022/03/08 09:41:25;;;;;;;7.20;6.13;;;;;;;7.66;65.73;102504.25;4991847;28;20353;-80
2022/03/08 09:43:54;;;;;;;9.18;7.35;;;;;;;7.52;65.61;102504.53;5016153;28;20398;-81
2022/03/08 09:46:22;;;;;;;7.28;6.55;;;;;;;7.47;66.40;102502.59;4986557;28;21981;-82
2022/03/08 09:48:51;;;;;;;8.88;6.75;;;;;;;7.39;65.16;102499.63;5016024;28;20049;-81
2022/03/08 09:51:20;;;;;;;10.23;6.80;;;;;;;7.38;66.32;102503.09;5023758;28;20041;-81
2022/03/08 09:53:55;;;;;;;7.93;6.20;;;;;;;7.36;65.77;102495.16;4997855;28;20033;-83
2022/03/08 09:56:25;;;;;;;11.15;6.40;;;;;;;7.38;65.82;102493.47;5033762;28;20357;-82
2022/03/08 09:58:53;;;;;;;7.65;5.88;;;;;;;7.40;65.86;102496.19;4976529;28;20068;-81
2022/03/08 10:01:22;;;;;;;6.88;6.15;;;;;;;7.40;65.84;102491.81;4993666;28;20688;-81
2022/03/08 10:03:53;;;;;;;7.78;6.13;;;;;;;7.39;66.02;102497.00;5039666;28;20391;-81
2022/03/08 10:06:21;;;;;;;6.50;5.45;;;;;;;7.43;65.92;102496.31;5033290;28;20166;-80
2022/03/08 10:09:09;;;;;;;11.82;6.30;;;;;;;7.48;67.28;102484.25;5035946;28;20065;-81
2022/03/08 10:11:38;;;;;;;8.63;5.72;;;;;;;7.51;65.04;102487.03;5035047;28;20048;-82
2022/03/08 10:14:39;;;;;;;6.50;5.63;;;;;;;7.53;65.04;102481.84;5009647;28;20049;-81
2022/03/08 10:17:32;;;;;;;9.05;5.70;;;;;;;7.57;65.12;102479.41;4962801;28;20370;-81
2022/03/08 10:20:01;;;;;;;6.57;5.60;;;;;;;7.61;64.77;102465.59;5027334;28;20394;-82
2022/03/08 10:22:32;;;;;;;6.25;5.65;;;;;;;7.65;64.76;102481.47;4994906;28;20053;-81
2022/03/08 10:25:10;;;;;;;7.63;5.70;;;;;;;7.65;64.42;102469.22;5022224;28;20041;-83
2022/03/08 10:28:03;;;;;;;6.97;6.20;;;;;;;7.70;65.31;102472.94;5026182;28;20072;-82
2022/03/08 10:30:50;;;;;;;8.75;5.93;;;;;;;7.80;63.74;102464.59;5009634;28;20053;-82
2022/03/08 10:33:22;;;;;;;9.75;5.93;;;;;;;7.85;64.28;102472.69;5010121;28;20042;-82
2022/03/08 10:35:53;;;;;;;10.60;4.88;;;;;;;7.86;62.88;102468.31;5015002;28;20061;-82
2022/03/08 10:38:22;;;;;;;7.53;5.38;;;;;;;7.92;64.11;102460.69;5031392;28;20253;-81
2022/03/08 10:40:50;;;;;;;6.30;5.70;;;;;;;7.94;63.67;102464.25;5000852;28;20038;-81
2022/03/08 10:43:19;;;;;;;6.72;4.93;;;;;;;7.96;63.57;102462.63;5025385;28;20273;-81
2022/03/08 10:45:50;;;;;;;5.57;5.07;;;;;;;8.03;63.60;102461.13;5025331;28;20250;-81
2022/03/08 10:48:26;;;;;;;6.50;5.43;;;;;;;8.08;62.23;102451.69;5029481;28;20630;-81
2022/03/08 10:50:57;;;;;;;5.90;5.35;;;;;;;8.12;63.17;102449.25;5028699;28;20468;-82
2022/03/08 10:53:27;;;;;;;6.10;5.05;;;;;;;8.12;62.45;102438.72;4990517;28;20080;-82
2022/03/08 10:55:55;;;;;;;10.60;5.10;;;;;;;8.14;62.63;102449.31;5000699;28;20053;-81
2022/03/08 10:58:24;;;;;;;5.60;4.97;;;;;;;8.18;62.48;102440.69;4989322;28;20069;-80
2022/03/08 11:00:54;;;;;;;5.43;4.65;;;;;;;8.24;62.54;102442.66;5008893;28;20045;-79
2022/03/08 11:03:27;;;;;;;5.35;4.78;;;;;;;8.29;61.65;102454.25;5034652;28;20037;-83
2022/03/08 11:06:05;;;;;;;5.45;4.85;;;;;;;8.30;60.95;102451.69;5018113;28;20025;-83
2022/03/08 11:08:34;;;;;;;6.18;4.20;;;;;;;8.34;61.14;102442.19;5012671;28;20029;-83
2022/03/08 11:11:05;;;;;;;8.80;4.95;;;;;;;8.40;60.57;102443.31;5025860;28;20042;-82
2022/03/08 11:13:34;;;;;;;5.18;4.63;;;;;;;8.45;60.39;102438.28;5006367;28;20037;-83
2022/03/08 11:16:05;;;;;;;5.30;4.80;;;;;;;8.51;59.76;102432.34;4987220;28;20045;-81
2022/03/08 11:18:36;;;;;;;5.03;4.53;;;;;;;8.51;59.29;102432.34;5023716;28;20036;-82
2022/03/08 11:21:05;;;;;;;4.40;4.00;;;;;;;8.54;59.31;102438.63;5017060;28;20399;-83
2022/03/08 11:23:35;;;;;;;4.63;4.22;;;;;;;8.55;59.00;102424.63;5024051;28;20490;-81
2022/03/08 11:26:12;;;;;;;5.35;4.70;;;;;;;8.59;58.26;102413.38;5019160;28;20053;-83
2022/03/08 11:28:46;;;;;;;4.68;3.78;;;;;;;8.58;58.05;102411.63;5016900;28;20050;-82
2022/03/08 11:31:23;;;;;;;4.78;4.38;;;;;;;8.59;58.05;102410.75;5019065;28;20422;-83
2022/03/08 11:34:10;;;;;;;5.90;4.40;;;;;;;8.65;56.92;102398.69;5013262;28;20076;-82
2022/03/08 11:37:03;;;;;;;6.38;4.57;;;;;;;8.68;58.12;102389.19;5025931;28;20056;-83